Kenilworth, Louisiana
Current Conditions -  °F | °C
As of 2:03 AM on Saturday 29 Nov 2014 (Local Time) from KNBG Reporting Station
Scattered Clouds Scattered Clouds  
Wind Chill: 44°   Ceiling: Unl
Heat Index: 44°   Visibility: NA
Dew Point: 40°   Wind: 0mph
Humidity: 85%   Direction: NA
Pressure: 30.22"   Gusts: NA
Location:  29.8369°N, 89.7702°W
Report Text: KNBG 290803Z AUTO 00000KT SCT030 07/04 A3022 RMK AO2 T00670044 TSNO $
Loading
Personal Weather Stations






























Interactive Weather Map New forecast layout! Learn more

10-Day Weather Forecast

Advertisements
Track Severe Weather on mobile